createdAt,value
2022-11-05T00:00:07.931Z,56.10
2022-11-05T00:02:53.037Z,56.31
2022-11-05T00:05:38.124Z,56.40
2022-11-05T00:08:23.248Z,56.21
2022-11-05T00:11:09.146Z,56.58
2022-11-05T00:13:56.449Z,56.21
2022-11-05T00:16:41.491Z,55.51
2022-11-05T00:19:26.701Z,55.45
2022-11-05T00:22:11.811Z,55.32
2022-11-05T00:24:56.683Z,55.59
2022-11-05T00:27:41.779Z,55.31
2022-11-05T00:30:26.746Z,55.60
2022-11-05T00:33:12.170Z,55.73
2022-11-05T00:35:57.474Z,55.40
2022-11-05T00:38:42.638Z,56.05
2022-11-05T00:41:27.714Z,55.96
2022-11-05T00:44:12.785Z,56.05
2022-11-05T00:46:59.946Z,55.16
2022-11-05T00:49:44.788Z,55.70
2022-11-05T00:52:29.889Z,56.11
2022-11-05T00:55:14.855Z,56.09
2022-11-05T00:57:59.867Z,55.44
2022-11-05T01:00:44.961Z,54.56
2022-11-05T01:03:29.974Z,53.66
2022-11-05T01:06:15.169Z,54.02
2022-11-05T01:09:00.057Z,54.92
2022-11-05T01:11:45.233Z,55.62
2022-11-05T01:14:30.175Z,54.96
2022-11-05T01:17:15.272Z,55.11
2022-11-05T01:20:00.358Z,54.80
2022-11-05T01:22:45.439Z,54.37
2022-11-05T01:25:30.747Z,54.98
2022-11-05T01:28:15.855Z,54.79
2022-11-05T01:31:00.878Z,55.36
2022-11-05T01:33:45.928Z,55.34
2022-11-05T01:36:31.153Z,55.01
2022-11-05T01:39:16.163Z,54.21
2022-11-05T01:42:01.174Z,55.72
2022-11-05T01:44:46.449Z,54.15
2022-11-05T01:47:31.395Z,55.89
2022-11-05T01:50:16.572Z,55.90
2022-11-05T01:53:01.619Z,55.57
2022-11-05T01:55:46.654Z,55.76
2022-11-05T01:58:31.669Z,54.25
2022-11-05T02:01:16.993Z,54.94
2022-11-05T02:04:02.131Z,54.77
2022-11-05T02:06:47.105Z,54.76
2022-11-05T02:09:32.195Z,55.78
2022-11-05T02:12:17.159Z,56.07
2022-11-05T02:15:02.257Z,56.19
2022-11-05T02:17:47.307Z,55.77
2022-11-05T02:20:32.296Z,55.99
2022-11-05T02:23:17.373Z,56.94
2022-11-05T02:26:02.453Z,57.66
2022-11-05T02:28:47.638Z,56.43
2022-11-05T02:31:32.681Z,56.87
2022-11-05T02:34:17.572Z,56.76
2022-11-05T02:37:02.319Z,56.01
2022-11-05T02:39:47.380Z,56.08
2022-11-05T02:42:32.396Z,56.36
2022-11-05T02:45:17.349Z,56.16
2022-11-05T02:48:02.295Z,55.55
2022-11-05T02:50:47.055Z,56.18
2022-11-05T02:53:32.379Z,56.49
2022-11-05T02:56:17.096Z,55.48
2022-11-05T02:59:02.028Z,56.31
2022-11-05T03:01:47.240Z,55.92
2022-11-05T03:04:32.108Z,56.09
2022-11-05T03:07:17.154Z,55.81
2022-11-05T03:10:02.458Z,56.92
2022-11-05T03:12:47.596Z,56.71
2022-11-05T03:15:32.707Z,55.13
2022-11-05T03:18:17.713Z,56.74
2022-11-05T03:21:02.863Z,55.60
2022-11-05T03:23:48.042Z,56.09
2022-11-05T03:26:33.068Z,56.39
2022-11-05T03:29:18.191Z,56.94
2022-11-05T03:32:03.339Z,56.96
2022-11-05T03:34:48.251Z,56.48
2022-11-05T03:37:33.477Z,57.14
2022-11-05T03:40:18.571Z,57.29
2022-11-05T03:43:03.746Z,56.55
2022-11-05T03:45:48.823Z,57.12
2022-11-05T03:48:33.805Z,56.59
2022-11-05T03:51:18.871Z,56.82
2022-11-05T03:54:04.017Z,57.16
2022-11-05T03:56:49.201Z,55.72
2022-11-05T03:59:34.199Z,57.08
2022-11-05T04:02:19.420Z,56.64
2022-11-05T04:05:04.298Z,56.41
2022-11-05T04:07:49.553Z,56.44
2022-11-05T04:10:34.634Z,56.80
2022-11-05T04:13:19.715Z,56.61
2022-11-05T04:16:04.808Z,56.93
2022-11-05T04:18:49.753Z,57.11
2022-11-05T04:21:34.891Z,56.42
2022-11-05T04:24:20.081Z,57.08
2022-11-05T04:27:05.111Z,57.13
2022-11-05T04:29:49.986Z,56.56
2022-11-05T04:32:35.125Z,57.17
2022-11-05T04:35:20.141Z,56.49
2022-11-05T04:38:05.193Z,56.43
2022-11-05T04:40:50.359Z,56.55
2022-11-05T04:43:35.432Z,56.84
2022-11-05T04:46:20.511Z,56.76
2022-11-05T04:49:05.611Z,57.02
2022-11-05T04:51:50.417Z,56.08
2022-11-05T04:54:35.321Z,56.00
2022-11-05T04:57:20.490Z,56.12
2022-11-05T05:00:05.640Z,56.30
2022-11-05T05:02:50.743Z,56.47
2022-11-05T05:05:35.769Z,57.37
2022-11-05T05:08:20.723Z,56.21
2022-11-05T05:11:05.753Z,56.51
2022-11-05T05:13:50.793Z,56.51
2022-11-05T05:16:35.830Z,56.81
2022-11-05T05:19:20.917Z,57.27
2022-11-05T05:22:05.833Z,57.20
2022-11-05T05:24:52.976Z,57.46
2022-11-05T05:27:37.885Z,57.71
2022-11-05T05:30:22.939Z,57.38
2022-11-05T05:33:07.997Z,57.33
2022-11-05T05:35:52.788Z,57.12
2022-11-05T05:38:37.794Z,57.45
2022-11-05T05:41:22.795Z,57.33
2022-11-05T05:44:07.886Z,56.31
2022-11-05T05:46:52.973Z,56.17
2022-11-05T05:49:38.140Z,56.38
2022-11-05T05:52:23.057Z,57.20
2022-11-05T05:55:08.227Z,57.38
2022-11-05T05:57:53.374Z,56.12
2022-11-05T06:00:38.400Z,55.62
2022-11-05T06:03:23.564Z,55.63
2022-11-05T06:06:08.612Z,55.70
2022-11-05T06:08:53.891Z,56.34
2022-11-05T06:11:38.786Z,55.98
2022-11-05T06:14:24.124Z,55.33
2022-11-05T06:17:09.202Z,55.29
2022-11-05T06:19:54.266Z,55.45
2022-11-05T06:22:39.333Z,56.00
2022-11-05T06:25:24.374Z,56.27
2022-11-05T06:28:09.501Z,55.98
2022-11-05T06:30:54.479Z,55.92
2022-11-05T06:33:39.690Z,55.81
2022-11-05T06:36:24.526Z,55.94
2022-11-05T06:39:09.678Z,55.88
2022-11-05T06:42:17.241Z,56.36
2022-11-05T06:44:59.814Z,56.88
2022-11-05T06:47:44.872Z,56.32
2022-11-05T06:50:29.954Z,55.97
2022-11-05T06:53:14.905Z,56.63
2022-11-05T06:56:00.118Z,56.00
2022-11-05T06:58:45.160Z,56.07
2022-11-05T07:01:30.322Z,56.09
2022-11-05T07:04:15.161Z,56.88
2022-11-05T07:07:00.186Z,56.01
2022-11-05T07:09:45.378Z,56.27
2022-11-05T07:12:30.540Z,55.57
2022-11-05T07:15:15.558Z,55.64
2022-11-05T07:18:00.710Z,57.07
2022-11-05T07:20:45.901Z,57.14
2022-11-05T07:23:30.973Z,56.66
2022-11-05T07:26:16.115Z,58.00
2022-11-05T07:29:01.207Z,56.90
2022-11-05T07:31:46.201Z,57.13
2022-11-05T07:34:31.463Z,58.31
2022-11-05T07:37:16.368Z,58.40
2022-11-05T07:40:01.470Z,58.70
2022-11-05T07:42:46.427Z,56.24
2022-11-05T07:45:31.392Z,58.00
2022-11-05T07:48:16.575Z,56.60
2022-11-05T07:51:01.890Z,56.47
2022-11-05T07:53:46.919Z,55.84
2022-11-05T07:56:31.979Z,55.47
2022-11-05T07:59:17.088Z,54.19
2022-11-05T08:02:02.342Z,53.87
2022-11-05T08:04:47.595Z,53.37
2022-11-05T08:07:32.737Z,53.83
2022-11-05T08:10:17.853Z,53.46
2022-11-05T08:13:03.029Z,54.12
2022-11-05T08:15:48.169Z,53.32
2022-11-05T08:18:33.215Z,54.62
2022-11-05T08:21:18.311Z,53.04
2022-11-05T08:24:03.396Z,53.02
2022-11-05T08:26:48.422Z,52.98
2022-11-05T08:29:33.344Z,54.14
2022-11-05T08:32:18.410Z,52.59
2022-11-05T08:35:03.423Z,53.20
2022-11-05T08:37:48.502Z,53.82
2022-11-05T08:40:33.521Z,53.41
2022-11-05T08:43:18.641Z,53.29
2022-11-05T08:46:03.752Z,54.16
2022-11-05T08:48:48.891Z,54.75
2022-11-05T08:51:33.946Z,53.87
2022-11-05T08:54:18.999Z,52.31
2022-11-05T08:57:04.171Z,52.61
2022-11-05T08:59:49.192Z,52.06
2022-11-05T09:02:34.535Z,53.38
2022-11-05T09:05:19.449Z,54.37
2022-11-05T09:08:04.350Z,53.75
2022-11-05T09:10:49.397Z,53.25
2022-11-05T09:13:34.552Z,52.30
2022-11-05T09:16:19.549Z,53.29
2022-11-05T09:19:04.643Z,53.14
2022-11-05T09:21:49.923Z,53.61
2022-11-05T09:24:34.759Z,52.55
2022-11-05T09:27:19.936Z,53.59
2022-11-05T09:30:05.064Z,53.15
2022-11-05T09:32:50.095Z,51.76
2022-11-05T09:35:35.294Z,53.18
2022-11-05T09:38:20.305Z,53.18
2022-11-05T09:41:05.574Z,53.02
2022-11-05T09:43:50.649Z,53.65
2022-11-05T09:46:35.566Z,53.67
2022-11-05T09:49:20.534Z,53.64
2022-11-05T09:52:05.733Z,52.01
2022-11-05T09:54:50.911Z,50.17
2022-11-05T09:57:36.096Z,50.46
2022-11-05T10:00:21.287Z,49.98
2022-11-05T10:03:06.381Z,50.69
2022-11-05T10:05:51.491Z,50.49
2022-11-05T10:08:36.518Z,50.06
2022-11-05T10:11:21.674Z,49.46
2022-11-05T10:14:06.643Z,49.44
2022-11-05T10:16:51.913Z,48.83
2022-11-05T10:19:36.937Z,48.69
2022-11-05T10:22:21.963Z,49.11
2022-11-05T10:25:07.139Z,48.53
2022-11-05T10:27:52.180Z,48.54
2022-11-05T10:30:37.303Z,49.39
2022-11-05T10:33:22.431Z,49.86
2022-11-05T10:36:07.567Z,49.21
2022-11-05T10:38:52.698Z,49.28
2022-11-05T10:41:37.737Z,49.15
2022-11-05T10:44:22.803Z,49.25
2022-11-05T10:47:07.811Z,48.44
2022-11-05T10:49:53.050Z,48.21
2022-11-05T10:52:38.120Z,46.61
2022-11-05T10:55:23.369Z,44.64
2022-11-05T10:58:08.458Z,44.89
2022-11-05T11:00:53.466Z,44.37
2022-11-05T11:03:38.704Z,42.43
2022-11-05T11:06:23.731Z,42.03
2022-11-05T11:09:08.637Z,41.46
2022-11-05T11:11:53.582Z,43.62
2022-11-05T11:14:38.636Z,43.89
2022-11-05T11:17:23.669Z,43.99
2022-11-05T11:20:08.842Z,43.35
2022-11-05T11:22:53.957Z,43.04
2022-11-05T11:25:39.030Z,42.68
2022-11-05T11:28:24.109Z,44.16
2022-11-05T11:31:09.342Z,44.13
2022-11-05T11:33:54.338Z,42.45
2022-11-05T11:36:39.508Z,42.17
2022-11-05T11:39:24.497Z,44.01
2022-11-05T11:42:09.610Z,43.52
2022-11-05T11:44:54.677Z,43.33
2022-11-05T11:47:39.695Z,43.46
2022-11-05T11:50:24.761Z,43.61
2022-11-05T11:53:10.173Z,43.75
2022-11-05T11:55:55.588Z,42.99
2022-11-05T11:58:40.814Z,43.97
2022-11-05T12:01:25.920Z,43.60
2022-11-05T12:04:10.998Z,43.90
2022-11-05T12:06:56.198Z,42.75
2022-11-05T12:09:41.155Z,44.31
2022-11-05T12:12:26.258Z,45.65
2022-11-05T12:15:11.259Z,45.91
2022-11-05T12:17:56.503Z,45.45
2022-11-05T12:20:41.671Z,44.93
2022-11-05T12:23:26.614Z,45.10
2022-11-05T12:26:11.822Z,44.73
2022-11-05T12:29:17.981Z,44.33
2022-11-05T12:32:01.859Z,44.32
2022-11-05T12:34:47.023Z,44.87
2022-11-05T12:37:32.035Z,43.29
2022-11-05T12:40:17.246Z,42.25
2022-11-05T12:43:04.386Z,42.50
2022-11-05T12:45:51.402Z,42.88
2022-11-05T12:48:37.367Z,42.30
2022-11-05T12:51:22.591Z,43.34
2022-11-05T12:54:07.719Z,43.89
2022-11-05T12:56:52.936Z,43.49
2022-11-05T12:59:37.955Z,43.73
2022-11-05T13:02:23.245Z,43.90
2022-11-05T13:05:08.107Z,44.70
2022-11-05T13:07:53.103Z,44.77
2022-11-05T13:10:38.152Z,45.00
2022-11-05T13:13:22.781Z,45.30
2022-11-05T13:16:07.834Z,45.14
2022-11-05T13:18:52.772Z,43.85
2022-11-05T13:21:37.834Z,43.82
2022-11-05T13:24:22.807Z,44.62
2022-11-05T13:27:08.060Z,44.79
2022-11-05T13:29:53.323Z,45.92
2022-11-05T13:32:38.442Z,45.55
2022-11-05T13:35:23.448Z,45.19
2022-11-05T13:38:08.235Z,46.12
2022-11-05T13:40:53.307Z,44.92
2022-11-05T13:43:38.246Z,46.32
2022-11-05T13:46:23.405Z,44.50
2022-11-05T13:49:08.456Z,44.52
2022-11-05T13:51:53.716Z,44.87
2022-11-05T13:54:38.765Z,42.74
2022-11-05T13:57:23.820Z,43.33
2022-11-05T14:00:08.938Z,43.11
2022-11-05T14:02:53.989Z,43.14
2022-11-05T14:05:39.078Z,44.08
2022-11-05T14:08:24.009Z,43.87
2022-11-05T14:11:09.133Z,43.42
2022-11-05T14:13:53.951Z,44.38
2022-11-05T14:16:39.390Z,43.80
2022-11-05T14:19:24.235Z,42.91
2022-11-05T14:22:09.315Z,42.63
2022-11-05T14:24:54.593Z,43.46
2022-11-05T14:27:39.832Z,43.75
2022-11-05T14:30:25.178Z,43.47
2022-11-05T14:33:10.535Z,42.82
2022-11-05T14:35:55.819Z,42.87
2022-11-05T14:38:40.911Z,43.09
2022-11-05T14:41:25.919Z,43.27
2022-11-05T14:44:10.989Z,42.64
2022-11-05T14:46:56.132Z,42.31
2022-11-05T14:49:41.503Z,42.19
2022-11-05T14:52:26.453Z,41.64
2022-11-05T14:55:11.788Z,42.26
2022-11-05T14:57:56.977Z,43.31
2022-11-05T15:00:42.027Z,42.93
2022-11-05T15:03:27.255Z,42.96
2022-11-05T15:06:12.383Z,42.89
2022-11-05T15:08:57.580Z,44.32
2022-11-05T15:11:42.548Z,44.56
2022-11-05T15:14:27.414Z,44.58
2022-11-05T15:17:12.467Z,43.66
2022-11-05T15:19:57.940Z,44.06
2022-11-05T15:22:43.239Z,44.68
2022-11-05T15:25:28.363Z,44.27
2022-11-05T15:28:13.358Z,43.98
2022-11-05T15:30:58.441Z,44.32
2022-11-05T15:33:43.687Z,43.82
2022-11-05T15:36:28.651Z,43.99
2022-11-05T15:39:28.918Z,43.43
2022-11-05T15:42:14.877Z,44.07
2022-11-05T15:44:59.732Z,45.20
2022-11-05T15:47:44.968Z,46.70
2022-11-05T15:50:29.864Z,47.63
2022-11-05T15:53:41.738Z,47.89
2022-11-05T15:56:20.282Z,48.26
2022-11-05T15:59:05.665Z,48.33
2022-11-05T16:01:50.722Z,48.93
2022-11-05T16:04:35.907Z,49.32
2022-11-05T16:07:21.070Z,49.80
2022-11-05T16:10:09.996Z,50.27
2022-11-05T16:12:57.582Z,50.49
2022-11-05T16:15:42.844Z,50.41
2022-11-05T16:18:27.892Z,50.21
2022-11-05T16:21:12.830Z,49.01
2022-11-05T16:23:58.300Z,49.67
2022-11-05T16:29:48.357Z,49.79
2022-11-05T16:32:33.456Z,50.09
2022-11-05T16:35:18.720Z,48.56
2022-11-05T16:38:03.895Z,48.56
2022-11-05T16:40:48.868Z,48.48
2022-11-05T16:43:33.756Z,48.28
2022-11-05T16:46:18.867Z,47.87
2022-11-05T16:49:03.961Z,48.38
2022-11-05T16:51:49.087Z,48.48
2022-11-05T16:54:34.033Z,49.29
2022-11-05T16:57:19.243Z,48.68
2022-11-05T17:00:04.282Z,48.53
2022-11-05T17:02:49.581Z,47.70
2022-11-05T17:05:34.626Z,48.34
2022-11-05T17:08:19.765Z,48.27
2022-11-05T17:11:04.868Z,47.31
2022-11-05T17:13:49.790Z,47.18
2022-11-05T17:16:35.032Z,47.13
2022-11-05T17:19:20.055Z,46.65
2022-11-05T17:22:05.108Z,47.67
2022-11-05T17:24:50.187Z,48.46
2022-11-05T17:27:35.297Z,47.79
2022-11-05T17:30:20.464Z,47.64
2022-11-05T17:33:05.564Z,47.90
2022-11-05T17:35:50.504Z,47.60
2022-11-05T17:38:35.439Z,48.00
2022-11-05T17:41:20.720Z,48.04
2022-11-05T17:44:05.460Z,47.72
2022-11-05T17:46:50.203Z,47.96
2022-11-05T17:49:35.191Z,48.63
2022-11-05T17:52:20.197Z,49.44
2022-11-05T17:55:05.484Z,49.46
2022-11-05T17:57:50.433Z,49.51
2022-11-05T18:00:35.516Z,49.70
2022-11-05T18:03:20.463Z,49.53
2022-11-05T18:06:05.677Z,49.52
2022-11-05T18:08:50.852Z,49.05
2022-11-05T18:11:39.075Z,48.85
2022-11-05T18:14:24.383Z,49.91
2022-11-05T18:17:09.311Z,49.65
2022-11-05T18:19:54.238Z,50.44
2022-11-05T18:22:39.317Z,50.55
2022-11-05T18:25:24.418Z,51.18
2022-11-05T18:28:09.739Z,52.23
2022-11-05T18:30:55.071Z,53.34
2022-11-05T18:33:40.094Z,53.66
2022-11-05T18:36:25.056Z,53.55
2022-11-05T18:39:09.958Z,52.74
2022-11-05T18:41:55.203Z,52.50
2022-11-05T18:44:40.313Z,52.46
2022-11-05T18:47:25.625Z,53.07
2022-11-05T18:50:10.670Z,53.17
2022-11-05T18:52:55.655Z,53.76
2022-11-05T18:55:40.668Z,54.25
2022-11-05T18:58:25.812Z,54.33
2022-11-05T19:01:10.778Z,54.14
2022-11-05T19:03:55.822Z,53.73
2022-11-05T19:06:40.962Z,53.06
2022-11-05T19:09:26.061Z,52.83
2022-11-05T19:12:11.264Z,52.31
2022-11-05T19:15:01.896Z,52.57
2022-11-05T19:17:47.253Z,53.06
2022-11-05T19:20:37.514Z,53.54
2022-11-05T19:23:23.106Z,53.38
2022-11-05T19:26:08.220Z,52.49
2022-11-05T19:28:53.391Z,52.27
2022-11-05T19:31:38.371Z,52.53
2022-11-05T19:34:23.386Z,52.56
2022-11-05T19:37:08.593Z,53.45
2022-11-05T19:39:53.423Z,53.83
2022-11-05T19:42:38.526Z,52.75
2022-11-05T19:45:43.670Z,53.10
2022-11-05T19:48:28.687Z,53.88
2022-11-05T19:51:13.859Z,54.21
2022-11-05T19:53:58.894Z,54.88
2022-11-05T19:56:44.075Z,55.38
2022-11-05T19:59:29.056Z,55.87
2022-11-05T20:02:16.461Z,55.10
2022-11-05T20:05:01.881Z,55.80
2022-11-05T20:07:52.339Z,55.68
2022-11-05T20:10:37.932Z,54.58
2022-11-05T20:13:22.810Z,53.67
2022-11-05T20:16:07.657Z,54.23
2022-11-05T20:18:52.778Z,53.73
2022-11-05T20:21:37.768Z,53.20
2022-11-05T20:24:25.285Z,53.53
2022-11-05T20:27:10.534Z,53.77
2022-11-05T20:29:55.599Z,53.60
2022-11-05T20:32:40.655Z,53.13
2022-11-05T20:35:25.702Z,53.37
2022-11-05T20:38:11.912Z,53.73
2022-11-05T20:40:57.256Z,53.79
2022-11-05T20:43:42.223Z,53.39
2022-11-05T20:46:27.361Z,53.72
2022-11-05T20:49:15.407Z,54.26
2022-11-05T20:52:00.466Z,54.24
2022-11-05T20:54:45.527Z,54.35
2022-11-05T20:57:30.581Z,54.99
2022-11-05T21:00:15.860Z,55.43
2022-11-05T21:03:00.976Z,55.03
2022-11-05T21:05:45.867Z,55.70
2022-11-05T21:08:30.881Z,55.87
2022-11-05T21:11:15.999Z,56.22
2022-11-05T21:14:01.228Z,56.39
2022-11-05T21:16:46.356Z,55.34
2022-11-05T21:19:31.572Z,54.66
2022-11-05T21:22:16.586Z,54.57
2022-11-05T21:25:01.661Z,54.52
2022-11-05T21:27:46.697Z,54.04
2022-11-05T21:30:31.977Z,53.88
2022-11-05T21:33:17.029Z,53.63
2022-11-05T21:36:01.985Z,53.91
2022-11-05T21:38:47.113Z,53.44
2022-11-05T21:41:32.146Z,53.04
2022-11-05T21:44:17.271Z,53.51
2022-11-05T21:47:02.302Z,53.57
2022-11-05T21:49:47.455Z,53.37
2022-11-05T21:52:32.520Z,53.97
2022-11-05T21:55:17.532Z,54.06
2022-11-05T21:58:02.640Z,54.09
2022-11-05T22:00:47.609Z,53.55
2022-11-05T22:03:32.727Z,55.25
2022-11-05T22:06:17.661Z,56.19
2022-11-05T22:09:02.782Z,55.78
2022-11-05T22:11:47.723Z,55.09
2022-11-05T22:14:32.659Z,54.66
2022-11-05T22:17:17.762Z,54.39
2022-11-05T22:20:02.824Z,54.71
2022-11-05T22:22:47.938Z,54.13
2022-11-05T22:25:32.907Z,54.27
2022-11-05T22:28:18.042Z,54.51
2022-11-05T22:31:02.997Z,54.17
2022-11-05T22:33:48.080Z,54.99
2022-11-05T22:36:32.979Z,55.54
2022-11-05T22:39:18.010Z,56.06
2022-11-05T22:42:07.227Z,55.45
2022-11-05T22:44:53.772Z,55.17
2022-11-05T22:47:38.740Z,56.08
2022-11-05T22:50:23.757Z,55.44
2022-11-05T22:53:08.943Z,55.22
2022-11-05T22:55:54.300Z,55.03
2022-11-05T22:58:39.338Z,55.97
2022-11-05T23:01:24.637Z,55.90
2022-11-05T23:04:09.690Z,55.58
2022-11-05T23:06:54.859Z,55.82
2022-11-05T23:09:40.085Z,55.33
2022-11-05T23:12:25.055Z,55.90
2022-11-05T23:15:10.616Z,56.21
2022-11-05T23:17:55.666Z,55.79
2022-11-05T23:20:40.802Z,55.08
2022-11-05T23:23:25.987Z,54.86
2022-11-05T23:26:10.922Z,54.67
2022-11-05T23:28:56.090Z,54.09
2022-11-05T23:31:41.118Z,54.81
2022-11-05T23:34:26.187Z,54.97
2022-11-05T23:37:11.249Z,55.33
2022-11-05T23:39:56.335Z,55.76
2022-11-05T23:42:41.359Z,56.38
2022-11-05T23:45:26.437Z,56.94
2022-11-05T23:48:12.131Z,56.05
2022-11-05T23:50:57.094Z,56.43
2022-11-05T23:53:42.150Z,56.63
2022-11-05T23:56:27.158Z,57.50
2022-11-05T23:59:12.223Z,57.65
